Time;durP1;ratioP1;P1;durP2;ratioP2;P2;SDS_P1;SDS_P2;PMS_P1;PMS_P2;Temp;Humidity;BMP_temperature;BMP_pressure;BME280_temperature;BME280_humidity;BME280_pressure;Samples;Min_cycle;Max_cycle;Signal;HPM_P1;HPM_P2
2021/12/06 00:00:10;;;;;;;1.10;1.00;;;;;;;;;;5034136;28;20426;-96
2021/12/06 00:02:36;;;;;;;0.80;0.73;;;;;;;;;;5032486;28;20512;-96
2021/12/06 00:05:05;;;;;;;1.83;1.73;;;;;;;;;;5018767;28;20436;-96
2021/12/06 00:07:31;;;;;;;0.80;0.70;;;;;;;;;;5035295;28;21014;-95
2021/12/06 00:09:57;;;;;;;0.80;0.70;;;;;;;;;;5030125;28;20494;-96
2021/12/06 00:12:23;;;;;;;0.93;0.83;;;;;;;;;;5013695;28;20485;-96
2021/12/06 00:14:49;;;;;;;0.93;0.83;;;;;;;;;;5036304;28;20466;-95
2021/12/06 00:17:16;;;;;;;0.80;0.70;;;;;;;;;;5017992;28;20790;-95
2021/12/06 00:19:43;;;;;;;1.00;0.90;;;;;;;;;;5035805;28;20426;-95
2021/12/06 00:22:11;;;;;;;0.93;0.83;;;;;;;;;;5032959;28;20438;-96
2021/12/06 00:24:37;;;;;;;0.80;0.73;;;;;;;;;;5036091;28;20458;-96
2021/12/06 00:27:04;;;;;;;0.80;0.70;;;;;;;;;;5035363;28;20448;-96
2021/12/06 00:29:30;;;;;;;0.80;0.77;;;;;;;;;;5018149;28;20434;-95
2021/12/06 00:31:56;;;;;;;2.10;1.17;;;;;;;;;;5005589;28;20474;-95
2021/12/06 00:34:24;;;;;;;0.80;0.80;;;;;;;;;;5030978;28;20418;-95
2021/12/06 00:36:52;;;;;;;0.80;0.70;;;;;;;;;;5035640;28;20445;-95
2021/12/06 00:39:19;;;;;;;0.90;0.80;;;;;;;;;;5035733;28;20977;-96
2021/12/06 00:41:46;;;;;;;0.80;0.70;;;;;;;;;;5010400;28;20484;-96
2021/12/06 00:44:12;;;;;;;0.90;0.80;;;;;;;;;;5018169;28;20438;-96
2021/12/06 00:46:39;;;;;;;0.80;0.70;;;;;;;;;;5007865;28;20445;-96
2021/12/06 00:49:06;;;;;;;0.80;0.73;;;;;;;;;;5014811;28;20443;-95
2021/12/06 00:51:32;;;;;;;0.80;0.70;;;;;;;;;;5014942;28;20471;-96
2021/12/06 00:53:58;;;;;;;1.30;1.20;;;;;;;;;;5017865;28;20445;-96
2021/12/06 00:56:24;;;;;;;0.90;0.80;;;;;;;;;;5034322;28;20444;-96
2021/12/06 00:58:50;;;;;;;1.00;0.90;;;;;;;;;;5017517;28;20930;-96
2021/12/06 01:01:16;;;;;;;0.90;0.80;;;;;;;;;;5035064;28;20430;-96
2021/12/06 01:03:42;;;;;;;0.80;0.70;;;;;;;;;;5029591;28;20459;-96
2021/12/06 01:06:09;;;;;;;0.80;0.70;;;;;;;;;;5025624;28;20438;-96
2021/12/06 01:08:35;;;;;;;0.80;0.70;;;;;;;;;;5016956;28;20435;-96
2021/12/06 01:11:00;;;;;;;2.20;1.47;;;;;;;;;;5012753;28;20531;-96
2021/12/06 01:13:27;;;;;;;0.90;0.80;;;;;;;;;;5016444;28;20449;-96
2021/12/06 01:15:54;;;;;;;0.90;0.80;;;;;;;;;;5017161;28;20528;-96
2021/12/06 01:18:20;;;;;;;0.80;0.80;;;;;;;;;;5034985;28;20418;-96
2021/12/06 01:20:56;;;;;;;1.10;1.00;;;;;;;;;;5032989;28;20445;-96
2021/12/06 01:23:27;;;;;;;0.80;0.70;;;;;;;;;;5017655;28;20520;-96
2021/12/06 01:31:11;;;;;;;0.80;0.70;;;;;;;;;;5035515;28;20481;-94
2021/12/06 01:39:17;;;;;;;0.80;0.70;;;;;;;;;;5015292;28;20510;-93
2021/12/06 01:41:58;;;;;;;0.80;0.80;;;;;;;;;;5021486;28;20446;-94
2021/12/06 01:44:26;;;;;;;0.80;0.70;;;;;;;;;;5027047;28;20456;-94
2021/12/06 01:46:58;;;;;;;0.80;0.63;;;;;;;;;;5020566;28;21015;-95
2021/12/06 01:49:28;;;;;;;0.80;0.70;;;;;;;;;;5016917;28;20422;-93
2021/12/06 01:51:56;;;;;;;0.80;0.70;;;;;;;;;;5002684;28;20478;-93
2021/12/06 01:54:22;;;;;;;0.80;0.70;;;;;;;;;;5023552;28;20499;-94
2021/12/06 01:56:49;;;;;;;0.80;0.60;;;;;;;;;;5011443;28;20443;-94
2021/12/06 01:59:15;;;;;;;2.70;2.50;;;;;;;;;;5006063;28;20446;-95
2021/12/06 02:01:41;;;;;;;0.80;0.73;;;;;;;;;;5032404;28;20433;-93
2021/12/06 02:04:08;;;;;;;0.80;0.70;;;;;;;;;;5023396;28;20434;-93
2021/12/06 02:06:35;;;;;;;0.80;0.70;;;;;;;;;;5034161;28;20431;-94
2021/12/06 02:09:03;;;;;;;0.90;0.80;;;;;;;;;;5014090;28;20949;-96
2021/12/06 02:11:32;;;;;;;0.90;0.80;;;;;;;;;;5028891;28;20493;-96
2021/12/06 02:14:09;;;;;;;0.80;0.80;;;;;;;;;;5031712;28;20430;-96
2021/12/06 02:16:53;;;;;;;0.80;0.80;;;;;;;;;;5023740;28;20415;-96
2021/12/06 02:19:19;;;;;;;0.90;0.80;;;;;;;;;;5023973;28;20431;-96
2021/12/06 02:21:46;;;;;;;0.80;0.70;;;;;;;;;;5031214;28;20430;-96
2021/12/06 02:24:12;;;;;;;0.80;0.70;;;;;;;;;;5033367;28;20438;-96
2021/12/06 02:26:40;;;;;;;1.30;1.20;;;;;;;;;;5030519;28;20461;-96
2021/12/06 02:29:07;;;;;;;0.83;0.70;;;;;;;;;;5032920;28;21089;-96
2021/12/06 02:31:33;;;;;;;0.80;0.70;;;;;;;;;;5013288;28;20490;-96
2021/12/06 02:33:59;;;;;;;0.80;0.67;;;;;;;;;;5025222;28;20432;-96
2021/12/06 02:36:26;;;;;;;1.00;0.80;;;;;;;;;;5025717;28;20443;-96
2021/12/06 02:38:52;;;;;;;0.93;0.80;;;;;;;;;;5021470;28;20424;-96
2021/12/06 02:41:19;;;;;;;0.80;0.70;;;;;;;;;;5031348;28;20426;-96
2021/12/06 02:43:45;;;;;;;0.80;0.70;;;;;;;;;;5011304;28;20911;-96
2021/12/06 02:46:11;;;;;;;0.80;0.70;;;;;;;;;;5027490;28;20426;-96
2021/12/06 02:48:37;;;;;;;0.87;0.80;;;;;;;;;;5015285;28;20442;-96
2021/12/06 02:51:05;;;;;;;0.80;0.70;;;;;;;;;;5033331;28;20488;-96
2021/12/06 02:53:32;;;;;;;0.80;0.70;;;;;;;;;;5019828;28;20469;-96
2021/12/06 02:56:00;;;;;;;0.80;0.80;;;;;;;;;;5032345;28;20509;-96
2021/12/06 03:01:04;;;;;;;0.80;0.70;;;;;;;;;;5032677;28;20457;-96
2021/12/06 03:03:29;;;;;;;0.90;0.80;;;;;;;;;;5014984;28;20446;-96
2021/12/06 03:05:56;;;;;;;1.00;0.90;;;;;;;;;;5032590;28;20449;-95
2021/12/06 03:08:35;;;;;;;0.80;0.70;;;;;;;;;;5032431;28;20457;-96
2021/12/06 03:11:01;;;;;;;0.80;0.70;;;;;;;;;;5032253;28;20568;-95
2021/12/06 03:13:27;;;;;;;0.80;0.70;;;;;;;;;;5033112;28;20453;-96
2021/12/06 03:15:53;;;;;;;0.80;0.77;;;;;;;;;;5033094;28;20466;-96
2021/12/06 03:18:19;;;;;;;0.80;0.80;;;;;;;;;;5008015;28;20426;-95
2021/12/06 03:20:45;;;;;;;0.80;0.77;;;;;;;;;;5015273;28;20450;-95
2021/12/06 03:23:11;;;;;;;0.80;0.70;;;;;;;;;;5015825;28;20441;-96
2021/12/06 03:25:37;;;;;;;1.00;0.90;;;;;;;;;;5015192;28;20438;-96
2021/12/06 03:28:03;;;;;;;0.80;0.70;;;;;;;;;;5015354;28;20434;-96
2021/12/06 03:30:29;;;;;;;0.80;0.70;;;;;;;;;;5014142;28;20805;-95
2021/12/06 03:32:55;;;;;;;0.93;0.83;;;;;;;;;;5034790;28;20454;-95
2021/12/06 03:35:21;;;;;;;0.80;0.80;;;;;;;;;;5036855;28;20421;-96
2021/12/06 03:37:47;;;;;;;0.80;0.70;;;;;;;;;;5011866;28;20976;-96
2021/12/06 03:40:13;;;;;;;0.80;0.80;;;;;;;;;;5015923;28;20754;-96
2021/12/06 03:42:39;;;;;;;0.87;0.80;;;;;;;;;;5031110;28;20462;-95
2021/12/06 03:45:06;;;;;;;0.80;0.60;;;;;;;;;;4999919;28;20792;-96
2021/12/06 03:47:32;;;;;;;0.80;0.70;;;;;;;;;;5046173;28;20445;-95
2021/12/06 03:49:59;;;;;;;0.80;0.67;;;;;;;;;;5016422;28;20462;-96
2021/12/06 03:52:26;;;;;;;0.90;0.80;;;;;;;;;;5035984;28;20473;-95
2021/12/06 03:54:53;;;;;;;1.40;1.30;;;;;;;;;;5035682;28;20430;-95
2021/12/06 03:57:19;;;;;;;0.90;0.80;;;;;;;;;;5012083;28;20493;-96
2021/12/06 03:59:45;;;;;;;0.80;0.70;;;;;;;;;;5019059;28;20434;-96
2021/12/06 04:02:11;;;;;;;0.90;0.80;;;;;;;;;;5014504;28;20446;-96
2021/12/06 04:04:37;;;;;;;0.80;0.80;;;;;;;;;;5026314;28;20441;-95
2021/12/06 04:07:03;;;;;;;0.90;0.77;;;;;;;;;;5035452;28;20586;-96
2021/12/06 04:09:30;;;;;;;0.80;0.70;;;;;;;;;;5026990;28;20430;-96
2021/12/06 04:11:56;;;;;;;0.80;0.80;;;;;;;;;;5018694;28;20483;-96
2021/12/06 04:14:22;;;;;;;0.80;0.70;;;;;;;;;;5018936;28;20553;-96
2021/12/06 04:16:48;;;;;;;0.97;0.87;;;;;;;;;;5035205;28;20469;-95
2021/12/06 04:19:14;;;;;;;0.80;0.80;;;;;;;;;;5033080;28;20797;-96
2021/12/06 04:21:40;;;;;;;0.80;0.70;;;;;;;;;;5016313;28;20444;-96
2021/12/06 04:24:07;;;;;;;0.80;0.70;;;;;;;;;;5003561;28;20429;-96
2021/12/06 04:26:33;;;;;;;0.90;0.80;;;;;;;;;;5015726;28;20442;-96
2021/12/06 04:29:01;;;;;;;0.80;0.70;;;;;;;;;;5036445;28;20430;-96
2021/12/06 04:31:34;;;;;;;0.80;0.80;;;;;;;;;;5035954;28;20538;-96
2021/12/06 04:34:00;;;;;;;0.80;0.70;;;;;;;;;;5006382;28;20497;-96
2021/12/06 04:36:26;;;;;;;0.80;0.73;;;;;;;;;;5018344;28;20468;-96
2021/12/06 04:38:52;;;;;;;0.87;0.70;;;;;;;;;;5031882;28;20430;-96
2021/12/06 04:41:18;;;;;;;0.80;0.70;;;;;;;;;;5009661;28;20486;-95
2021/12/06 04:43:44;;;;;;;0.80;0.70;;;;;;;;;;5024927;28;20424;-96
2021/12/06 04:46:10;;;;;;;0.80;0.80;;;;;;;;;;5034109;28;20415;-96
2021/12/06 04:48:36;;;;;;;0.80;0.60;;;;;;;;;;5018701;28;20579;-96
2021/12/06 04:51:03;;;;;;;0.80;0.70;;;;;;;;;;5034261;28;20899;-96
2021/12/06 04:53:36;;;;;;;0.80;0.63;;;;;;;;;;5035300;28;20426;-96
2021/12/06 04:56:11;;;;;;;0.80;0.80;;;;;;;;;;5025671;28;20753;-96
2021/12/06 04:58:42;;;;;;;0.90;0.80;;;;;;;;;;5017685;28;20782;-96
2021/12/06 05:01:13;;;;;;;0.80;0.60;;;;;;;;;;5030599;28;20438;-96
2021/12/06 05:03:40;;;;;;;0.80;0.60;;;;;;;;;;5014852;28;20470;-96
2021/12/06 05:06:09;;;;;;;0.90;0.80;;;;;;;;;;5020332;28;20850;-96
2021/12/06 05:08:37;;;;;;;0.80;0.70;;;;;;;;;;5039437;28;20442;-96
2021/12/06 05:11:04;;;;;;;0.93;0.83;;;;;;;;;;5018283;28;20502;-96
2021/12/06 05:13:31;;;;;;;0.80;0.70;;;;;;;;;;5013443;28;22299;-96
2021/12/06 05:15:57;;;;;;;1.30;1.20;;;;;;;;;;5006448;28;20443;-96
2021/12/06 05:18:23;;;;;;;1.00;0.90;;;;;;;;;;5024053;28;20445;-96
2021/12/06 05:20:50;;;;;;;1.00;0.90;;;;;;;;;;5036569;28;20442;-96
2021/12/06 05:23:18;;;;;;;1.00;0.90;;;;;;;;;;5036712;28;20572;-96
2021/12/06 05:25:44;;;;;;;0.80;0.80;;;;;;;;;;5031570;28;20458;-96
2021/12/06 05:28:10;;;;;;;0.90;0.80;;;;;;;;;;5028399;28;20431;-96
2021/12/06 05:30:38;;;;;;;0.80;0.70;;;;;;;;;;5034169;28;20458;-96
2021/12/06 05:33:04;;;;;;;0.80;0.70;;;;;;;;;;5015354;28;20437;-96
2021/12/06 05:35:30;;;;;;;0.80;0.70;;;;;;;;;;5033860;28;20530;-96
2021/12/06 05:37:57;;;;;;;0.80;0.70;;;;;;;;;;5030940;28;20548;-96
2021/12/06 05:40:25;;;;;;;0.80;0.70;;;;;;;;;;5023657;28;20424;-96
2021/12/06 05:42:52;;;;;;;1.20;1.10;;;;;;;;;;5034592;28;20430;-95
2021/12/06 05:45:19;;;;;;;1.00;0.90;;;;;;;;;;5017016;28;20442;-96
2021/12/06 05:47:45;;;;;;;0.80;0.80;;;;;;;;;;5034564;28;20438;-96
2021/12/06 05:50:11;;;;;;;1.17;1.07;;;;;;;;;;5016783;28;20434;-95
2021/12/06 05:52:37;;;;;;;0.80;0.70;;;;;;;;;;5034592;28;20438;-95
2021/12/06 05:55:05;;;;;;;1.83;1.27;;;;;;;;;;5034315;28;20461;-95
2021/12/06 05:57:31;;;;;;;0.90;0.80;;;;;;;;;;5029982;28;20450;-96
2021/12/06 05:59:57;;;;;;;0.87;0.80;;;;;;;;;;5014902;28;20505;-95
2021/12/06 06:02:23;;;;;;;0.80;0.70;;;;;;;;;;5029451;28;20520;-95
2021/12/06 06:04:49;;;;;;;0.80;0.67;;;;;;;;;;5034522;28;20418;-95
2021/12/06 06:07:15;;;;;;;0.90;0.80;;;;;;;;;;5021245;28;20445;-96
2021/12/06 06:09:41;;;;;;;0.90;0.80;;;;;;;;;;5034132;28;20466;-96
2021/12/06 06:12:08;;;;;;;0.80;0.60;;;;;;;;;;5013893;28;20960;-95
2021/12/06 06:14:34;;;;;;;1.57;1.47;;;;;;;;;;5017701;28;20427;-96
2021/12/06 06:17:09;;;;;;;0.80;0.70;;;;;;;;;;5007534;28;20475;-96
2021/12/06 06:19:35;;;;;;;3.80;2.20;;;;;;;;;;5034267;28;20432;-96
2021/12/06 06:22:01;;;;;;;0.80;0.70;;;;;;;;;;5075598;23;20531;-94
2021/12/06 06:24:27;;;;;;;0.80;0.73;;;;;;;;;;5014083;28;20431;-93
2021/12/06 06:26:53;;;;;;;1.00;0.80;;;;;;;;;;4997132;28;20435;-93
2021/12/06 06:29:19;;;;;;;0.80;0.80;;;;;;;;;;5026948;28;20489;-94
2021/12/06 06:31:45;;;;;;;0.80;0.77;;;;;;;;;;4996556;28;20475;-93
2021/12/06 06:34:11;;;;;;;0.90;0.80;;;;;;;;;;4984710;28;20440;-95
2021/12/06 06:36:37;;;;;;;0.80;0.60;;;;;;;;;;4994468;28;20451;-95
2021/12/06 06:39:05;;;;;;;0.80;0.70;;;;;;;;;;5021611;28;20437;-94
2021/12/06 06:41:31;;;;;;;0.80;0.77;;;;;;;;;;4994309;28;20485;-96
2021/12/06 06:43:58;;;;;;;0.80;0.80;;;;;;;;;;5005660;28;20412;-95
2021/12/06 06:46:24;;;;;;;0.80;0.80;;;;;;;;;;5000613;28;20509;-95
2021/12/06 06:48:50;;;;;;;1.27;1.17;;;;;;;;;;5030106;28;20422;-95
2021/12/06 06:51:15;;;;;;;0.80;0.80;;;;;;;;;;5020831;28;20966;-96
2021/12/06 06:53:41;;;;;;;0.83;0.80;;;;;;;;;;5006893;28;20438;-95
2021/12/06 06:56:08;;;;;;;0.80;0.70;;;;;;;;;;5024424;28;20439;-94
2021/12/06 06:58:34;;;;;;;0.80;0.70;;;;;;;;;;5008810;28;20427;-95
2021/12/06 07:01:00;;;;;;;0.80;0.70;;;;;;;;;;4999909;28;20427;-95
2021/12/06 07:03:31;;;;;;;0.80;0.70;;;;;;;;;;5013238;28;20474;-95
2021/12/06 07:05:57;;;;;;;0.87;0.80;;;;;;;;;;4995493;28;20423;-94
2021/12/06 07:08:23;;;;;;;0.80;0.80;;;;;;;;;;5012730;28;20423;-94
2021/12/06 07:10:50;;;;;;;1.10;1.00;;;;;;;;;;4994349;28;20475;-95
2021/12/06 07:13:17;;;;;;;1.40;1.30;;;;;;;;;;4993647;28;20431;-95
2021/12/06 07:15:43;;;;;;;0.87;0.80;;;;;;;;;;5004629;28;20430;-94
2021/12/06 07:18:09;;;;;;;0.90;0.80;;;;;;;;;;4982082;28;20439;-95
2021/12/06 07:20:35;;;;;;;0.97;0.87;;;;;;;;;;5013342;28;20426;-95
2021/12/06 07:23:03;;;;;;;1.10;1.00;;;;;;;;;;5042490;28;20480;-95
2021/12/06 07:25:29;;;;;;;0.90;0.80;;;;;;;;;;5036630;28;20449;-94
2021/12/06 07:27:56;;;;;;;0.87;0.80;;;;;;;;;;5041254;28;20422;-95
2021/12/06 07:30:22;;;;;;;0.80;0.80;;;;;;;;;;5020970;28;21201;-95
2021/12/06 07:32:48;;;;;;;0.80;0.80;;;;;;;;;;5008308;28;20452;-95
2021/12/06 07:35:15;;;;;;;1.50;1.40;;;;;;;;;;5031389;28;20426;-95
2021/12/06 07:37:41;;;;;;;1.30;1.20;;;;;;;;;;5013316;28;20862;-96
2021/12/06 07:40:08;;;;;;;0.80;0.70;;;;;;;;;;5016151;28;20453;-96
2021/12/06 07:42:34;;;;;;;0.80;0.80;;;;;;;;;;5019318;28;20474;-96
2021/12/06 07:45:01;;;;;;;0.80;0.70;;;;;;;;;;5046962;28;20501;-96
2021/12/06 07:47:27;;;;;;;0.80;0.70;;;;;;;;;;5028436;28;20439;-95
2021/12/06 07:49:53;;;;;;;1.10;1.00;;;;;;;;;;5024348;28;20431;-95
2021/12/06 07:52:19;;;;;;;0.80;0.73;;;;;;;;;;5008358;28;20473;-96
2021/12/06 07:54:45;;;;;;;0.80;0.73;;;;;;;;;;5027091;28;20445;-95
2021/12/06 07:57:11;;;;;;;0.80;0.80;;;;;;;;;;5037378;28;20791;-96
2021/12/06 07:59:38;;;;;;;1.00;0.90;;;;;;;;;;5036721;28;20429;-95
2021/12/06 08:02:05;;;;;;;0.80;0.77;;;;;;;;;;5020000;28;20440;-95
2021/12/06 08:04:32;;;;;;;0.80;0.70;;;;;;;;;;5030126;28;20446;-94
2021/12/06 08:06:58;;;;;;;0.80;0.70;;;;;;;;;;5014571;28;20431;-94
2021/12/06 08:09:24;;;;;;;1.00;0.90;;;;;;;;;;5028010;28;20775;-96
2021/12/06 08:11:50;;;;;;;1.00;0.90;;;;;;;;;;5002405;28;20483;-95
2021/12/06 08:14:16;;;;;;;0.80;0.80;;;;;;;;;;5024374;28;20429;-85
2021/12/06 08:16:43;;;;;;;0.80;0.60;;;;;;;;;;5024028;28;20437;-90
2021/12/06 08:19:11;;;;;;;0.93;0.83;;;;;;;;;;5004027;28;20841;-90
2021/12/06 08:21:37;;;;;;;1.00;0.90;;;;;;;;;;5021796;28;20524;-91
2021/12/06 08:24:04;;;;;;;0.80;0.77;;;;;;;;;;5017275;28;20429;-90
2021/12/06 08:26:31;;;;;;;0.80;0.70;;;;;;;;;;5028184;28;20934;-92
2021/12/06 08:28:57;;;;;;;0.80;0.70;;;;;;;;;;5009974;28;20425;-93
2021/12/06 08:31:23;;;;;;;0.80;0.67;;;;;;;;;;5030436;28;20493;-93
2021/12/06 08:33:50;;;;;;;1.30;1.20;;;;;;;;;;5023255;28;20434;-93
2021/12/06 08:36:17;;;;;;;0.80;0.70;;;;;;;;;;5024832;28;20442;-92
2021/12/06 08:38:43;;;;;;;0.83;0.80;;;;;;;;;;5029767;28;20436;-91
2021/12/06 08:41:11;;;;;;;1.10;1.00;;;;;;;;;;5019555;28;20457;-92
2021/12/06 08:43:38;;;;;;;1.07;0.97;;;;;;;;;;5014947;28;20435;-93
2021/12/06 08:46:06;;;;;;;1.00;0.90;;;;;;;;;;5014280;28;20433;-91
2021/12/06 08:48:33;;;;;;;0.83;0.73;;;;;;;;;;5033756;28;20815;-92
2021/12/06 08:51:01;;;;;;;0.80;0.80;;;;;;;;;;5040313;28;21915;-91
2021/12/06 08:53:27;;;;;;;0.80;0.77;;;;;;;;;;5020705;28;20430;-93
2021/12/06 08:55:54;;;;;;;0.90;0.80;;;;;;;;;;5024227;28;20448;-92
2021/12/06 08:58:20;;;;;;;1.23;1.13;;;;;;;;;;5032844;28;20425;-92
2021/12/06 09:00:46;;;;;;;0.97;0.87;;;;;;;;;;5036910;28;20429;-92
2021/12/06 09:03:12;;;;;;;0.80;0.70;;;;;;;;;;5033376;28;20445;-94
2021/12/06 09:05:41;;;;;;;0.80;0.80;;;;;;;;;;5037747;28;20443;-91
2021/12/06 09:08:07;;;;;;;0.80;0.77;;;;;;;;;;5029524;28;20511;-92
2021/12/06 09:10:33;;;;;;;0.80;0.70;;;;;;;;;;5016934;28;20477;-92
2021/12/06 09:12:59;;;;;;;0.80;0.73;;;;;;;;;;5033510;28;20785;-93
2021/12/06 09:15:26;;;;;;;0.90;0.80;;;;;;;;;;5029814;28;20448;-92
2021/12/06 09:17:54;;;;;;;0.80;0.70;;;;;;;;;;5034527;28;20439;-95
2021/12/06 09:20:22;;;;;;;0.87;0.80;;;;;;;;;;5032509;28;20446;-93
2021/12/06 09:22:48;;;;;;;0.90;0.80;;;;;;;;;;5029290;28;20546;-89
2021/12/06 09:25:15;;;;;;;0.90;0.80;;;;;;;;;;5015614;28;20579;-93
2021/12/06 09:27:42;;;;;;;1.60;1.50;;;;;;;;;;5023399;28;20432;-96
2021/12/06 09:30:09;;;;;;;0.80;0.70;;;;;;;;;;5203578;23;21342;-89
2021/12/06 09:32:35;;;;;;;0.80;0.80;;;;;;;;;;5032179;28;20475;-87
2021/12/06 09:35:03;;;;;;;1.77;1.67;;;;;;;;;;5042099;28;20441;-82
2021/12/06 09:37:29;;;;;;;0.90;0.80;;;;;;;;;;5048497;28;20425;-90
2021/12/06 09:39:57;;;;;;;1.20;1.10;;;;;;;;;;5030663;28;20485;-89
2021/12/06 09:42:23;;;;;;;1.20;1.10;;;;;;;;;;5034533;28;20516;-91
2021/12/06 09:44:49;;;;;;;1.63;1.53;;;;;;;;;;5024096;28;20437;-91
2021/12/06 09:47:15;;;;;;;3.03;1.77;;;;;;;;;;5034211;28;20441;-89
2021/12/06 09:49:41;;;;;;;0.80;0.70;;;;;;;;;;5041672;28;20802;-90
2021/12/06 09:52:07;;;;;;;0.80;0.63;;;;;;;;;;5042856;28;20488;-91
2021/12/06 09:54:37;;;;;;;1.40;1.30;;;;;;;;;;5051459;28;20437;-91
2021/12/06 09:57:04;;;;;;;0.90;0.77;;;;;;;;;;5052074;28;20428;-91
2021/12/06 09:59:31;;;;;;;0.80;0.70;;;;;;;;;;5053442;28;20487;-91
2021/12/06 10:02:03;;;;;;;0.80;0.70;;;;;;;;;;5053659;28;20436;-91
2021/12/06 10:04:31;;;;;;;0.80;0.70;;;;;;;;;;5050762;28;20440;-91
2021/12/06 10:06:58;;;;;;;0.80;0.70;;;;;;;;;;5026233;28;20430;-90
2021/12/06 10:09:25;;;;;;;2.10;1.30;;;;;;;;;;5031859;28;20461;-90
2021/12/06 10:11:52;;;;;;;0.80;0.70;;;;;;;;;;5034964;28;21013;-90
2021/12/06 10:14:18;;;;;;;0.90;0.80;;;;;;;;;;5034840;28;21283;-91
2021/12/06 10:16:44;;;;;;;0.80;0.63;;;;;;;;;;5034668;28;20512;-91
2021/12/06 10:19:10;;;;;;;1.10;1.00;;;;;;;;;;5053180;28;20471;-90
2021/12/06 10:21:38;;;;;;;0.87;0.80;;;;;;;;;;5051348;28;20449;-91
2021/12/06 10:24:07;;;;;;;0.80;0.63;;;;;;;;;;5058031;28;20440;-91
2021/12/06 10:26:33;;;;;;;0.80;0.70;;;;;;;;;;5034752;28;20439;-91
2021/12/06 10:29:01;;;;;;;0.80;0.60;;;;;;;;;;5016461;28;20516;-90
2021/12/06 10:31:27;;;;;;;0.90;0.70;;;;;;;;;;5034246;28;20477;-90
2021/12/06 10:33:55;;;;;;;1.00;0.90;;;;;;;;;;5049784;28;20489;-90
2021/12/06 10:36:21;;;;;;;0.90;0.70;;;;;;;;;;5050808;28;20451;-91
2021/12/06 10:38:52;;;;;;;0.90;0.70;;;;;;;;;;5028070;28;20438;-90
2021/12/06 10:41:20;;;;;;;0.90;0.70;;;;;;;;;;5034553;28;20556;-92
2021/12/06 10:44:03;;;;;;;0.80;0.70;;;;;;;;;;5051540;28;20475;-90
2021/12/06 10:46:32;;;;;;;0.80;0.70;;;;;;;;;;5050206;28;20834;-90
2021/12/06 10:48:59;;;;;;;0.87;0.70;;;;;;;;;;5034236;28;20475;-92
2021/12/06 10:51:26;;;;;;;0.80;0.70;;;;;;;;;;5051633;28;20477;-91
2021/12/06 10:54:03;;;;;;;0.90;0.80;;;;;;;;;;5047915;28;20423;-92
2021/12/06 10:56:41;;;;;;;0.90;0.70;;;;;;;;;;5033711;28;20448;-90
2021/12/06 10:59:10;;;;;;;0.80;0.60;;;;;;;;;;5051487;28;20508;-88
2021/12/06 11:01:36;;;;;;;0.80;0.70;;;;;;;;;;5023366;28;20453;-90
2021/12/06 11:04:04;;;;;;;1.20;1.07;;;;;;;;;;5051267;28;20455;-90
2021/12/06 11:06:33;;;;;;;0.80;0.70;;;;;;;;;;5051502;28;20479;-91
2021/12/06 11:09:00;;;;;;;0.90;0.80;;;;;;;;;;5043750;28;20434;-92
2021/12/06 11:11:33;;;;;;;0.80;0.80;;;;;;;;;;5017624;28;20481;-92
2021/12/06 11:14:01;;;;;;;0.80;0.70;;;;;;;;;;5028165;28;20433;-92
2021/12/06 11:16:28;;;;;;;0.80;0.70;;;;;;;;;;5050942;28;20493;-91
2021/12/06 11:18:55;;;;;;;0.87;0.70;;;;;;;;;;5040086;28;20934;-87
2021/12/06 11:21:26;;;;;;;0.80;0.70;;;;;;;;;;5051703;28;20425;-94
2021/12/06 11:24:00;;;;;;;0.90;0.80;;;;;;;;;;5049782;28;20460;-86
2021/12/06 11:26:26;;;;;;;0.90;0.70;;;;;;;;;;5031692;28;21190;-89
2021/12/06 11:28:53;;;;;;;0.80;0.80;;;;;;;;;;5027419;28;20476;-88
2021/12/06 11:31:19;;;;;;;1.20;1.10;;;;;;;;;;5032682;28;20481;-88
2021/12/06 11:33:56;;;;;;;0.90;0.73;;;;;;;;;;5042178;28;20468;-90
2021/12/06 11:36:23;;;;;;;0.87;0.70;;;;;;;;;;5028348;28;21079;-89
2021/12/06 11:38:58;;;;;;;0.80;0.70;;;;;;;;;;5021665;28;20929;-87
2021/12/06 11:41:24;;;;;;;0.83;0.70;;;;;;;;;;5028355;28;20449;-90
2021/12/06 11:43:49;;;;;;;1.37;1.27;;;;;;;;;;5032228;28;20433;-88
2021/12/06 11:46:26;;;;;;;0.80;0.70;;;;;;;;;;5022035;28;20456;-88
2021/12/06 11:48:52;;;;;;;0.90;0.80;;;;;;;;;;5045840;28;20430;-89
2021/12/06 11:51:19;;;;;;;0.87;0.80;;;;;;;;;;5025206;28;20477;-89
2021/12/06 11:53:46;;;;;;;0.90;0.80;;;;;;;;;;5022135;28;20510;-94
2021/12/06 11:56:15;;;;;;;0.90;0.80;;;;;;;;;;5027251;28;20433;-93
2021/12/06 11:58:43;;;;;;;0.80;0.70;;;;;;;;;;5034753;28;20426;-91
2021/12/06 12:01:09;;;;;;;1.00;0.90;;;;;;;;;;5035387;28;20441;-92
2021/12/06 12:03:36;;;;;;;0.80;0.80;;;;;;;;;;5030358;28;20875;-91
2021/12/06 12:06:02;;;;;;;0.90;0.80;;;;;;;;;;5037581;28;20425;-91
2021/12/06 12:08:32;;;;;;;1.40;1.30;;;;;;;;;;5037176;28;20436;-89
2021/12/06 12:10:59;;;;;;;0.80;0.70;;;;;;;;;;5042146;28;20484;-91
2021/12/06 12:13:27;;;;;;;0.87;0.80;;;;;;;;;;5050601;28;20540;-91
2021/12/06 12:15:54;;;;;;;0.87;0.77;;;;;;;;;;5030402;28;20521;-91
2021/12/06 12:18:20;;;;;;;0.90;0.80;;;;;;;;;;5020367;28;20460;-90
2021/12/06 12:20:47;;;;;;;2.07;1.33;;;;;;;;;;5032050;28;20744;-96
2021/12/06 12:23:13;;;;;;;0.87;0.80;;;;;;;;;;5053300;28;20451;-92
2021/12/06 12:25:50;;;;;;;0.80;0.70;;;;;;;;;;5037678;28;20432;-96
2021/12/06 12:28:22;;;;;;;0.80;0.60;;;;;;;;;;5065437;28;20425;-96
2021/12/06 12:30:50;;;;;;;0.80;0.70;;;;;;;;;;5044728;28;20482;-90
2021/12/06 12:38:34;;;;;;;0.90;0.80;;;;;;;;;;5391702;22;20471;-96
2021/12/06 12:41:03;;;;;;;0.80;0.60;;;;;;;;;;5071941;28;20971;-95
2021/12/06 12:43:37;;;;;;;1.00;0.90;;;;;;;;;;5048144;28;20421;-96
2021/12/06 12:46:04;;;;;;;0.97;0.87;;;;;;;;;;5054725;28;20848;-96
2021/12/06 13:00:03;;;;;;;0.83;0.80;;;;;;;;;;5101169;23;21660;-95
2021/12/06 13:02:38;;;;;;;0.80;0.60;;;;;;;;;;5102647;23;20489;-96
2021/12/06 13:05:07;;;;;;;0.90;0.80;;;;;;;;;;5020297;28;20468;-96
2021/12/06 13:10:31;;;;;;;1.20;1.10;;;;;;;;;;5793702;23;20569;-96
2021/12/06 13:13:21;;;;;;;0.80;0.80;;;;;;;;;;5485948;23;20497;-96
2021/12/06 13:16:22;;;;;;;0.93;0.83;;;;;;;;;;5155482;22;20493;-95
2021/12/06 13:21:45;;;;;;;0.90;0.80;;;;;;;;;;5055104;28;20406;-96
2021/12/06 13:27:45;;;;;;;0.87;0.80;;;;;;;;;;5038059;28;20399;-96
2021/12/06 13:30:21;;;;;;;0.90;0.80;;;;;;;;;;5011241;28;20428;-96
2021/12/06 13:32:52;;;;;;;0.80;0.70;;;;;;;;;;5006097;28;20458;-95
2021/12/06 13:35:35;;;;;;;0.80;0.70;;;;;;;;;;5016505;23;20534;-96
2021/12/06 13:38:18;;;;;;;0.80;0.70;;;;;;;;;;5036261;28;20419;-94
2021/12/06 13:46:32;;;;;;;0.80;0.70;;;;;;;;;;5044437;23;20499;-96
2021/12/06 13:49:04;;;;;;;0.80;0.70;;;;;;;;;;5032713;28;20415;-96
2021/12/06 13:51:30;;;;;;;0.90;0.80;;;;;;;;;;5015290;28;20478;-96
2021/12/06 14:05:08;;;;;;;2.20;2.03;;;;;;;;;;5869040;22;21471;-96
2021/12/06 14:07:34;;;;;;;1.27;1.17;;;;;;;;;;5061477;28;20445;-91
2021/12/06 14:23:58;;;;;;;0.90;0.80;;;;;;;;;;5089662;22;20512;-96
2021/12/06 14:32:22;;;;;;;1.23;1.13;;;;;;;;;;5115856;22;20493;-96
2021/12/06 14:37:27;;;;;;;0.80;0.77;;;;;;;;;;5070611;28;20468;-96
2021/12/06 14:43:15;;;;;;;0.80;0.70;;;;;;;;;;5058669;28;20526;-96
2021/12/06 14:45:42;;;;;;;0.80;0.73;;;;;;;;;;5061647;28;20430;-95
2021/12/06 14:54:06;;;;;;;0.90;0.80;;;;;;;;;;5040953;28;20918;-96
2021/12/06 14:56:19;;;;;;;0.90;0.80;;;;;;;;;;5037158;28;20434;-96
2021/12/06 15:04:40;;;;;;;1.10;1.00;;;;;;;;;;5043933;23;20623;-92
2021/12/06 15:07:11;;;;;;;1.10;1.00;;;;;;;;;;5029623;28;20802;-92
2021/12/06 15:09:39;;;;;;;1.07;0.97;;;;;;;;;;5027960;28;20420;-96
2021/12/06 15:12:05;;;;;;;1.90;1.80;;;;;;;;;;5014889;28;20474;-91
2021/12/06 15:14:31;;;;;;;0.87;0.80;;;;;;;;;;5013587;28;20477;-93
2021/12/06 15:16:58;;;;;;;1.00;0.90;;;;;;;;;;5026527;28;20430;-91
2021/12/06 15:19:24;;;;;;;0.80;0.70;;;;;;;;;;5010395;28;20422;-93
2021/12/06 15:21:52;;;;;;;0.93;0.87;;;;;;;;;;5011257;28;20441;-92
2021/12/06 15:24:18;;;;;;;1.77;1.60;;;;;;;;;;5009654;28;20433;-89
2021/12/06 15:26:50;;;;;;;1.03;0.93;;;;;;;;;;5029638;28;20425;-95
2021/12/06 15:29:21;;;;;;;1.77;1.67;;;;;;;;;;5040257;28;20411;-96
2021/12/06 15:31:49;;;;;;;0.80;0.77;;;;;;;;;;5027013;28;20478;-96
2021/12/06 15:34:38;;;;;;;0.80;0.80;;;;;;;;;;5077553;23;20560;-96
2021/12/06 15:37:04;;;;;;;2.87;2.77;;;;;;;;;;5016882;28;20454;-87
2021/12/06 15:39:30;;;;;;;1.13;1.03;;;;;;;;;;5026869;28;20461;-88
2021/12/06 15:41:56;;;;;;;1.67;1.57;;;;;;;;;;5009784;28;20579;-90
2021/12/06 15:44:29;;;;;;;0.80;0.80;;;;;;;;;;5028614;28;20532;-95
2021/12/06 15:46:58;;;;;;;1.00;0.90;;;;;;;;;;5013903;28;20434;-85
2021/12/06 15:49:27;;;;;;;1.00;0.90;;;;;;;;;;5029678;28;20426;-96
2021/12/06 15:52:16;;;;;;;0.80;0.70;;;;;;;;;;5096485;22;20489;-96
2021/12/06 15:54:44;;;;;;;0.83;0.80;;;;;;;;;;5073813;28;20512;-96
2021/12/06 15:57:19;;;;;;;0.80;0.80;;;;;;;;;;5066245;28;20967;-96
2021/12/06 15:59:46;;;;;;;1.10;1.00;;;;;;;;;;5069600;28;20460;-96
2021/12/06 16:02:15;;;;;;;0.80;0.73;;;;;;;;;;5050678;28;20439;-95
2021/12/06 16:04:56;;;;;;;1.80;1.70;;;;;;;;;;5064705;23;20495;-96
2021/12/06 16:07:27;;;;;;;0.80;0.70;;;;;;;;;;5053818;28;20429;-96
2021/12/06 16:09:56;;;;;;;0.80;0.80;;;;;;;;;;5042294;28;20450;-96
2021/12/06 16:12:22;;;;;;;0.87;0.87;;;;;;;;;;5064106;28;20517;-96
2021/12/06 16:14:48;;;;;;;1.53;1.43;;;;;;;;;;5038738;28;20434;-96
2021/12/06 16:17:14;;;;;;;0.90;0.80;;;;;;;;;;5056566;28;20438;-96
2021/12/06 16:19:40;;;;;;;0.83;0.80;;;;;;;;;;5030853;28;20932;-94